Decoded Metar for PAKV (KALTAG in AK, USA) (IATA:KAL) | Meteo·Mobile Aviation Weather
aviador You're here:

PAKV Decoded Metar

KALTAG in AK, USA
Report Time2019-01-16 17:53:00
UTC Time2019-01-16 17:58:26
Flight Rules vfr VFR
Wind070° at 07 kt
W.Decomp.*RWY 03: 6.5 kt HW 2.6 kt RCW
W.Rank070° ranks 10
Current wind is above 070° avg. (4.8)
Visibility9999 m
Phenomena:N/A
Clouds:N/A
Expected CloudBase > 1,200 ft AGL from Temp-Dew spread
CeilingNone
Temp-11°C (ISA -26)
Dew Point-14°C (79% RH)
AAT-16.8°C
QNH1011 hPa
Density Alt-2,910 ft
Elevation200 ft
Report Wrong Elevation
Raw Report
METAR PAKV 161753Z AUTO 07007KT 10SM CLR M11/M14 A2985 RMK AO2
SLP113 60000 T11061144 11100 21194 56007 TSNO=

Extra information for PAKV:More info

Metar Taf Metar & Taf Last 4 Metars F.Rules Stats Wind Profile Meteogram Temp Stats Airport Information Weather charts Add Link Nearby VenuesMetar ALERT Operation Metar Decoded Social comments

AIRNAV info for PAKV